createdAt,value
2018-10-21T00:01:09.161Z,99.90
2018-10-21T00:03:37.968Z,99.90
2018-10-21T00:06:06.735Z,99.90
2018-10-21T00:08:35.544Z,99.90
2018-10-21T00:11:04.390Z,99.90
2018-10-21T00:13:33.219Z,99.90
2018-10-21T00:16:01.959Z,99.90
2018-10-21T00:18:30.634Z,99.90
2018-10-21T00:20:59.439Z,99.90
2018-10-21T00:23:28.132Z,99.90
2018-10-21T00:25:56.896Z,99.90
2018-10-21T00:28:25.559Z,99.90
2018-10-21T00:30:54.301Z,99.90
2018-10-21T00:33:23.065Z,99.90
2018-10-21T00:35:51.749Z,99.90
2018-10-21T00:38:20.469Z,99.90
2018-10-21T00:40:49.156Z,99.90
2018-10-21T00:43:17.886Z,99.90
2018-10-21T00:45:46.638Z,99.90
2018-10-21T00:48:15.363Z,99.90
2018-10-21T00:50:44.104Z,99.90
2018-10-21T00:53:12.843Z,99.90
2018-10-21T00:55:41.552Z,99.90
2018-10-21T00:58:10.277Z,99.90
2018-10-21T01:00:38.995Z,99.90
2018-10-21T01:03:07.822Z,99.90
2018-10-21T01:05:36.566Z,99.90
2018-10-21T01:08:05.758Z,99.90
2018-10-21T01:10:34.600Z,99.90
2018-10-21T01:13:03.322Z,99.90
2018-10-21T01:15:32.072Z,99.90
2018-10-21T01:18:00.899Z,99.90
2018-10-21T01:20:29.574Z,99.90
2018-10-21T01:22:58.253Z,99.90
2018-10-21T01:25:26.940Z,99.90
2018-10-21T01:27:55.664Z,99.90
2018-10-21T01:30:24.410Z,99.90
2018-10-21T01:32:53.099Z,99.90
2018-10-21T01:35:21.906Z,99.90
2018-10-21T01:37:50.660Z,99.90
2018-10-21T01:40:29.188Z,99.90
2018-10-21T01:42:58.003Z,99.90
2018-10-21T01:45:27.169Z,99.90
2018-10-21T01:47:57.006Z,99.90
2018-10-21T01:50:25.909Z,99.90
2018-10-21T01:52:55.629Z,99.90
2018-10-21T01:55:24.547Z,99.90
2018-10-21T01:57:53.543Z,99.90
2018-10-21T02:00:22.476Z,99.90
2018-10-21T02:02:51.179Z,99.90
2018-10-21T02:05:19.886Z,99.90
2018-10-21T02:07:48.751Z,99.90
2018-10-21T02:10:18.465Z,99.90
2018-10-21T02:12:47.193Z,99.90
2018-10-21T02:15:15.896Z,99.90
2018-10-21T02:17:44.623Z,99.90
2018-10-21T02:20:14.233Z,99.90
2018-10-21T02:22:43.646Z,99.90
2018-10-21T02:25:12.448Z,99.90
2018-10-21T02:27:41.922Z,99.90
2018-10-21T02:30:20.141Z,99.90
2018-10-21T02:32:49.603Z,99.90
2018-10-21T02:35:18.848Z,99.90
2018-10-21T02:37:47.931Z,99.90
2018-10-21T02:41:44.098Z,99.90
2018-10-21T02:44:14.306Z,99.90
2018-10-21T02:46:43.699Z,99.90
2018-10-21T02:49:13.112Z,99.90
2018-10-21T02:51:42.029Z,99.90
2018-10-21T02:54:11.153Z,99.90
2018-10-21T02:56:39.960Z,99.90
2018-10-21T02:59:08.761Z,99.90
2018-10-21T03:01:37.677Z,99.90
2018-10-21T03:04:06.520Z,99.90
2018-10-21T03:06:35.332Z,99.90
2018-10-21T03:09:05.619Z,99.90
2018-10-21T03:11:34.487Z,99.90
2018-10-21T03:14:03.590Z,99.90
2018-10-21T03:16:32.385Z,99.90
2018-10-21T03:19:01.198Z,99.90
2018-10-21T03:21:29.974Z,99.90
2018-10-21T03:23:58.705Z,99.90
2018-10-21T03:26:27.432Z,99.90
2018-10-21T03:28:56.314Z,99.90
2018-10-21T03:31:26.076Z,99.90
2018-10-21T03:33:55.073Z,99.90
2018-10-21T03:36:23.682Z,99.90
2018-10-21T03:38:52.558Z,99.90
2018-10-21T03:41:21.369Z,99.90
2018-10-21T03:43:50.099Z,99.90
2018-10-21T03:46:18.969Z,99.90
2018-10-21T03:48:47.784Z,99.90
2018-10-21T03:51:16.595Z,99.90
2018-10-21T03:53:45.434Z,99.90
2018-10-21T03:56:14.193Z,99.90
2018-10-21T03:58:42.997Z,99.90
2018-10-21T04:01:11.754Z,99.90
2018-10-21T04:03:40.521Z,99.90
2018-10-21T04:06:09.331Z,99.90
2018-10-21T04:08:38.046Z,99.90
2018-10-21T04:11:06.891Z,99.90
2018-10-21T04:13:35.692Z,99.90
2018-10-21T04:16:04.520Z,99.90
2018-10-21T04:18:33.348Z,99.90
2018-10-21T04:21:03.223Z,99.90
2018-10-21T04:23:31.948Z,99.90
2018-10-21T04:26:00.733Z,99.90
2018-10-21T04:28:29.469Z,99.90
2018-10-21T04:30:58.337Z,99.90
2018-10-21T04:33:57.482Z,99.90
2018-10-21T04:36:31.476Z,99.90
2018-10-21T04:39:36.184Z,99.90
2018-10-21T04:42:04.996Z,99.90
2018-10-21T04:44:33.788Z,99.90
2018-10-21T04:47:02.639Z,99.90
2018-10-21T04:49:31.377Z,99.90
2018-10-21T04:52:00.106Z,99.90
2018-10-21T04:54:34.289Z,99.90
2018-10-21T04:57:04.367Z,99.90
2018-10-21T04:59:33.203Z,99.90
2018-10-21T05:02:02.013Z,99.90
2018-10-21T05:04:30.850Z,99.90
2018-10-21T05:06:59.756Z,99.90
2018-10-21T05:09:28.593Z,99.90
2018-10-21T05:11:57.412Z,99.90
2018-10-21T05:14:26.332Z,99.90
2018-10-21T05:16:55.170Z,99.90
2018-10-21T05:19:23.850Z,99.90
2018-10-21T05:21:52.700Z,99.90
2018-10-21T05:24:21.488Z,99.90
2018-10-21T05:26:50.300Z,99.90
2018-10-21T05:29:20.077Z,99.90
2018-10-21T05:31:48.834Z,99.90
2018-10-21T05:34:17.618Z,99.90
2018-10-21T05:36:46.374Z,99.90
2018-10-21T05:39:15.093Z,99.90
2018-10-21T05:41:43.976Z,99.90
2018-10-21T05:44:12.718Z,99.90
2018-10-21T05:46:52.261Z,99.90
2018-10-21T05:49:21.145Z,99.90
2018-10-21T05:51:51.025Z,99.90
2018-10-21T05:54:20.269Z,99.90
2018-10-21T05:56:50.193Z,99.90
2018-10-21T05:59:19.125Z,99.90
2018-10-21T06:01:48.465Z,99.90
2018-10-21T06:04:18.023Z,99.90
2018-10-21T06:06:46.703Z,99.90
2018-10-21T06:09:15.696Z,99.90
2018-10-21T06:11:44.556Z,99.90
2018-10-21T06:14:13.343Z,99.90
2018-10-21T06:17:49.465Z,99.90
2018-10-21T06:20:23.367Z,99.90
2018-10-21T06:22:52.892Z,99.90
2018-10-21T06:25:21.664Z,99.90
2018-10-21T06:27:50.502Z,99.90
2018-10-21T06:30:19.255Z,99.90
2018-10-21T06:32:48.000Z,99.90
2018-10-21T06:35:16.769Z,99.90
2018-10-21T06:37:45.588Z,99.90
2018-10-21T06:40:14.320Z,99.90
2018-10-21T06:42:43.182Z,99.90
2018-10-21T06:45:12.564Z,99.90
2018-10-21T06:47:41.338Z,99.90
2018-10-21T06:50:14.598Z,99.90
2018-10-21T06:52:43.430Z,99.90
2018-10-21T06:55:12.418Z,99.90
2018-10-21T06:57:41.417Z,99.90
2018-10-21T07:00:10.226Z,99.90
2018-10-21T07:02:39.087Z,99.90
2018-10-21T07:05:18.715Z,99.90
2018-10-21T07:07:47.567Z,99.90
2018-10-21T07:10:16.459Z,99.90
2018-10-21T07:12:45.129Z,99.90
2018-10-21T07:15:13.957Z,99.90
2018-10-21T07:17:45.206Z,99.90
2018-10-21T07:20:13.968Z,99.90
2018-10-21T07:22:43.888Z,99.90
2018-10-21T07:25:12.678Z,99.90
2018-10-21T07:27:41.793Z,99.90
2018-10-21T07:30:12.102Z,99.90
2018-10-21T07:32:41.505Z,99.90
2018-10-21T07:35:12.327Z,99.90
2018-10-21T07:37:41.962Z,99.90
2018-10-21T07:40:11.369Z,99.90
2018-10-21T07:42:40.210Z,99.90
2018-10-21T07:45:08.954Z,99.90
2018-10-21T07:47:37.705Z,99.90
2018-10-21T07:50:06.627Z,99.90
2018-10-21T07:52:35.480Z,99.90
2018-10-21T07:55:04.364Z,99.90
2018-10-21T07:57:33.336Z,99.90
2018-10-21T08:00:02.152Z,99.90
2018-10-21T08:02:30.913Z,99.90
2018-10-21T08:04:59.725Z,99.90
2018-10-21T08:07:39.655Z,99.90
2018-10-21T08:10:09.168Z,99.90
2018-10-21T08:12:38.115Z,99.90
2018-10-21T08:15:07.035Z,99.90
2018-10-21T08:17:35.754Z,99.90
2018-10-21T08:20:04.885Z,99.90
2018-10-21T08:22:34.547Z,99.90
2018-10-21T08:25:03.530Z,99.90
2018-10-21T08:27:32.395Z,99.90
2018-10-21T08:30:01.170Z,99.90
2018-10-21T08:32:30.005Z,99.90
2018-10-21T08:34:58.809Z,99.90
2018-10-21T08:37:27.607Z,99.90
2018-10-21T08:39:56.397Z,99.90
2018-10-21T08:42:25.240Z,99.90
2018-10-21T08:44:53.982Z,99.90
2018-10-21T08:47:22.762Z,99.90
2018-10-21T08:49:51.693Z,99.90
2018-10-21T08:52:20.562Z,99.90
2018-10-21T08:54:49.399Z,99.90
2018-10-21T08:57:18.473Z,99.90
2018-10-21T08:59:47.402Z,99.90
2018-10-21T09:02:16.343Z,99.90
2018-10-21T09:04:45.078Z,99.90
2018-10-21T09:07:13.969Z,99.90
2018-10-21T09:09:42.788Z,99.90
2018-10-21T09:12:11.830Z,99.90
2018-10-21T09:14:40.620Z,99.90
2018-10-21T09:17:09.474Z,99.90
2018-10-21T09:19:38.234Z,99.90
2018-10-21T09:22:08.225Z,99.90
2018-10-21T09:24:38.015Z,99.90
2018-10-21T09:27:07.270Z,99.90
2018-10-21T09:29:37.845Z,99.90
2018-10-21T09:32:06.795Z,99.90
2018-10-21T09:34:35.635Z,99.90
2018-10-21T09:37:04.520Z,99.90
2018-10-21T09:39:33.499Z,99.90
2018-10-21T09:42:02.523Z,99.90
2018-10-21T09:44:31.225Z,99.90
2018-10-21T09:47:00.050Z,99.90
2018-10-21T09:49:28.924Z,99.90
2018-10-21T09:51:57.835Z,99.90
2018-10-21T09:54:26.684Z,99.90
2018-10-21T09:56:55.573Z,99.90
2018-10-21T09:59:24.691Z,99.90
2018-10-21T10:01:58.903Z,99.90
2018-10-21T10:04:27.799Z,99.90
2018-10-21T10:06:57.662Z,99.90
2018-10-21T10:09:26.475Z,99.90
2018-10-21T10:11:55.323Z,99.90
2018-10-21T10:14:24.306Z,99.90
2018-10-21T10:16:53.209Z,99.90
2018-10-21T10:19:22.031Z,99.90
2018-10-21T10:21:50.784Z,99.90
2018-10-21T10:24:19.667Z,99.90
2018-10-21T10:26:48.498Z,99.90
2018-10-21T10:29:17.460Z,99.90
2018-10-21T10:31:47.336Z,99.90
2018-10-21T10:34:16.215Z,99.90
2018-10-21T10:36:45.133Z,99.90
2018-10-21T10:39:14.006Z,99.90
2018-10-21T10:41:42.844Z,99.90
2018-10-21T10:44:11.622Z,99.90
2018-10-21T10:46:40.383Z,99.90
2018-10-21T10:49:09.355Z,99.90
2018-10-21T10:51:39.138Z,99.90
2018-10-21T10:54:07.521Z,99.90
2018-10-21T10:56:36.292Z,99.90
2018-10-21T10:59:05.098Z,99.90
2018-10-21T11:01:33.865Z,99.90
2018-10-21T11:04:02.707Z,99.90
2018-10-21T11:06:31.371Z,99.90
2018-10-21T11:09:00.206Z,99.90
2018-10-21T11:11:29.005Z,99.90
2018-10-21T11:13:57.887Z,99.90
2018-10-21T11:16:26.687Z,99.90
2018-10-21T11:18:55.476Z,99.90
2018-10-21T11:21:24.283Z,99.90
2018-10-21T11:23:53.027Z,99.90
2018-10-21T11:26:21.897Z,99.90
2018-10-21T11:28:50.738Z,99.90
2018-10-21T11:31:19.538Z,99.90
2018-10-21T11:33:48.372Z,99.90
2018-10-21T11:36:17.136Z,99.90
2018-10-21T11:38:45.896Z,99.90
2018-10-21T11:41:14.667Z,99.90
2018-10-21T11:43:43.469Z,99.90
2018-10-21T11:46:12.574Z,99.90
2018-10-21T11:48:41.198Z,99.90
2018-10-21T11:51:09.957Z,99.90
2018-10-21T11:53:38.832Z,99.90
2018-10-21T11:56:07.683Z,99.90
2018-10-21T11:58:36.576Z,99.90
2018-10-21T12:01:05.449Z,99.90
2018-10-21T12:03:34.177Z,99.90
2018-10-21T12:06:03.012Z,99.90
2018-10-21T12:08:31.730Z,99.90
2018-10-21T12:11:00.576Z,99.90
2018-10-21T12:13:29.335Z,99.90
2018-10-21T12:15:58.219Z,99.90
2018-10-21T12:18:27.026Z,99.90
2018-10-21T12:20:55.921Z,99.90
2018-10-21T12:23:24.814Z,99.90
2018-10-21T12:25:53.559Z,99.90
2018-10-21T12:28:22.326Z,99.90
2018-10-21T12:30:51.063Z,99.90
2018-10-21T12:33:19.814Z,99.90
2018-10-21T12:35:48.602Z,99.90
2018-10-21T12:38:17.406Z,99.90
2018-10-21T12:40:46.205Z,99.90
2018-10-21T12:43:15.020Z,99.90
2018-10-21T12:45:43.757Z,99.90
2018-10-21T12:48:12.525Z,99.90
2018-10-21T12:50:41.249Z,99.90
2018-10-21T12:53:09.995Z,99.90
2018-10-21T12:55:44.004Z,99.90
2018-10-21T12:58:12.903Z,99.90
2018-10-21T13:00:41.671Z,99.90
2018-10-21T13:03:10.605Z,99.90
2018-10-21T13:05:39.325Z,99.50
2018-10-21T13:08:08.152Z,99.70
2018-10-21T13:10:36.905Z,99.90
2018-10-21T13:13:06.112Z,99.40
2018-10-21T13:15:34.952Z,99.40
2018-10-21T13:18:04.157Z,98.80
2018-10-21T13:20:32.932Z,99.20
2018-10-21T13:23:01.744Z,98.90
2018-10-21T13:25:30.507Z,98.80
2018-10-21T13:27:59.280Z,98.20
2018-10-21T13:30:28.086Z,98.50
2018-10-21T13:32:56.921Z,98.10
2018-10-21T13:35:25.688Z,98.60
2018-10-21T13:37:54.426Z,98.20
2018-10-21T13:40:23.334Z,98.10
2018-10-21T13:42:52.104Z,98.20
2018-10-21T13:45:20.875Z,97.50
2018-10-21T13:47:49.654Z,98.00
2018-10-21T13:50:18.501Z,98.10
2018-10-21T13:52:47.282Z,97.70
2018-10-21T13:55:16.101Z,97.70
2018-10-21T13:57:44.802Z,97.60
2018-10-21T14:00:13.597Z,98.00
2018-10-21T14:02:42.407Z,97.50
2018-10-21T14:05:11.223Z,97.70
2018-10-21T14:07:40.186Z,97.60
2018-10-21T14:10:09.245Z,97.80
2018-10-21T14:12:38.001Z,97.80
2018-10-21T14:15:06.990Z,98.00
2018-10-21T14:17:35.746Z,98.00
2018-10-21T14:20:04.814Z,98.20
2018-10-21T14:22:33.599Z,98.20
2018-10-21T14:25:02.535Z,98.10
2018-10-21T14:27:31.252Z,97.60
2018-10-21T14:30:00.085Z,97.80
2018-10-21T14:32:28.866Z,98.30
2018-10-21T14:34:57.584Z,98.00
2018-10-21T14:37:26.611Z,98.40
2018-10-21T14:39:55.506Z,98.00
2018-10-21T14:42:24.288Z,97.50
2018-10-21T14:44:53.021Z,98.30
2018-10-21T14:47:21.849Z,97.80
2018-10-21T14:49:50.621Z,98.40
2018-10-21T14:52:19.337Z,98.00
2018-10-21T14:54:48.059Z,98.00
2018-10-21T14:57:16.825Z,97.70
2018-10-21T14:59:45.547Z,97.10
2018-10-21T15:02:14.503Z,97.80
2018-10-21T15:04:43.122Z,98.00
2018-10-21T15:07:11.970Z,98.20
2018-10-21T15:09:40.734Z,98.30
2018-10-21T15:12:09.589Z,98.00
2018-10-21T15:14:38.329Z,98.60
2018-10-21T15:17:07.158Z,98.80
2018-10-21T15:19:35.913Z,98.80
2018-10-21T15:22:05.052Z,99.10
2018-10-21T15:24:33.836Z,98.80
2018-10-21T15:27:02.633Z,99.00
2018-10-21T15:29:31.350Z,99.10
2018-10-21T15:32:00.182Z,98.50
2018-10-21T15:34:28.997Z,98.60
2018-10-21T15:36:57.859Z,98.50
2018-10-21T15:39:26.592Z,98.70
2018-10-21T15:41:59.113Z,98.40
2018-10-21T15:44:27.843Z,98.80
2018-10-21T15:46:56.646Z,98.80
2018-10-21T15:49:25.423Z,98.50
2018-10-21T15:51:54.288Z,98.50
2018-10-21T15:54:23.053Z,98.40
2018-10-21T15:56:51.831Z,98.70
2018-10-21T15:59:20.694Z,98.90
2018-10-21T16:01:49.428Z,98.80
2018-10-21T16:04:18.272Z,99.00
2018-10-21T16:06:46.938Z,99.20
2018-10-21T16:09:15.739Z,99.30
2018-10-21T16:11:44.569Z,99.20
2018-10-21T16:14:13.562Z,99.80
2018-10-21T16:16:42.310Z,99.70
2018-10-21T16:19:11.070Z,99.80
2018-10-21T16:21:39.824Z,99.90
2018-10-21T16:24:08.533Z,99.90
2018-10-21T16:26:37.447Z,99.90
2018-10-21T16:29:06.279Z,99.90
2018-10-21T16:31:35.155Z,99.90
2018-10-21T16:34:03.985Z,99.90
2018-10-21T16:36:32.771Z,99.90
2018-10-21T16:39:01.614Z,99.90
2018-10-21T16:41:32.805Z,99.90
2018-10-21T16:44:01.458Z,99.90
2018-10-21T16:46:47.412Z,99.90
2018-10-21T16:49:16.954Z,99.90
2018-10-21T16:51:50.203Z,99.90
2018-10-21T16:54:22.044Z,99.90
2018-10-21T16:56:54.445Z,99.90
2018-10-21T16:59:23.168Z,99.90
2018-10-21T17:01:58.125Z,99.90
2018-10-21T17:04:26.680Z,99.90
2018-10-21T17:06:57.230Z,99.90
2018-10-21T17:09:26.940Z,99.90
2018-10-21T17:11:55.373Z,99.90
2018-10-21T17:14:24.124Z,99.90
2018-10-21T17:16:53.391Z,99.90
2018-10-21T17:19:24.031Z,99.90
2018-10-21T17:21:52.544Z,99.90
2018-10-21T17:24:21.222Z,99.90
2018-10-21T17:26:49.691Z,99.90
2018-10-21T17:29:18.204Z,99.90
2018-10-21T17:31:46.762Z,99.90
2018-10-21T17:34:15.394Z,99.90
2018-10-21T17:36:43.828Z,99.90
2018-10-21T17:39:15.125Z,99.90
2018-10-21T17:41:43.850Z,99.90
2018-10-21T17:44:12.911Z,99.90
2018-10-21T17:46:41.499Z,99.90
2018-10-21T17:49:10.011Z,99.90
2018-10-21T17:51:38.529Z,99.90
2018-10-21T17:54:07.088Z,99.90
2018-10-21T17:56:39.852Z,99.90
2018-10-21T17:59:08.369Z,99.90
2018-10-21T18:01:36.933Z,99.90
2018-10-21T18:04:05.640Z,99.90
2018-10-21T18:06:39.724Z,99.90
2018-10-21T18:09:10.001Z,99.90
2018-10-21T18:11:38.608Z,99.90
2018-10-21T18:14:07.382Z,99.90
2018-10-21T18:16:36.144Z,99.90
2018-10-21T18:19:05.174Z,99.90
2018-10-21T18:21:33.680Z,99.90
2018-10-21T18:24:02.207Z,99.90
2018-10-21T18:26:32.000Z,99.90
2018-10-21T18:29:06.205Z,99.90
2018-10-21T18:31:34.765Z,99.90
2018-10-21T18:34:03.351Z,99.90
2018-10-21T18:36:32.886Z,99.90
2018-10-21T18:39:01.442Z,99.90
2018-10-21T18:41:39.720Z,99.90
2018-10-21T18:44:08.806Z,99.90
2018-10-21T18:46:37.429Z,99.90
2018-10-21T18:49:06.025Z,99.90
2018-10-21T18:51:34.563Z,99.90
2018-10-21T18:54:03.085Z,99.90
2018-10-21T18:56:31.658Z,99.90
2018-10-21T18:59:00.180Z,99.90
2018-10-21T19:01:28.673Z,99.90
2018-10-21T19:03:57.247Z,99.90
2018-10-21T19:06:26.766Z,99.90
2018-10-21T19:08:55.294Z,99.90
2018-10-21T19:11:23.810Z,99.90
2018-10-21T19:13:52.523Z,99.90
2018-10-21T19:16:21.225Z,99.90
2018-10-21T19:18:51.805Z,99.90
2018-10-21T19:21:20.330Z,99.90
2018-10-21T19:23:48.859Z,99.90
2018-10-21T19:26:17.717Z,99.90
2018-10-21T19:28:46.225Z,99.90
2018-10-21T19:31:14.854Z,99.90
2018-10-21T19:33:43.390Z,99.90
2018-10-21T19:36:11.863Z,99.90
2018-10-21T19:38:40.423Z,99.90
2018-10-21T19:41:08.937Z,99.90
2018-10-21T19:43:37.622Z,99.90
2018-10-21T19:46:06.231Z,99.90
2018-10-21T19:48:34.792Z,99.90
2018-10-21T19:51:03.381Z,99.90
2018-10-21T19:53:31.965Z,99.90
2018-10-21T19:56:00.482Z,99.90
2018-10-21T19:58:30.078Z,99.90
2018-10-21T20:00:58.572Z,99.90
2018-10-21T20:03:27.157Z,99.90
2018-10-21T20:05:55.652Z,99.90
2018-10-21T20:08:24.193Z,99.90
2018-10-21T20:10:52.708Z,99.90
2018-10-21T20:13:21.233Z,99.90
2018-10-21T20:15:49.736Z,99.90
2018-10-21T20:18:18.295Z,99.90
2018-10-21T20:20:46.794Z,99.90
2018-10-21T20:23:15.293Z,99.90
2018-10-21T20:25:43.823Z,99.90
2018-10-21T20:28:12.426Z,99.90
2018-10-21T20:30:41.075Z,99.90
2018-10-21T20:33:09.688Z,99.90
2018-10-21T20:35:38.194Z,99.90
2018-10-21T20:38:06.715Z,99.90
2018-10-21T20:40:35.242Z,99.90
2018-10-21T20:43:03.784Z,99.90
2018-10-21T20:45:32.304Z,99.90
2018-10-21T20:48:00.854Z,99.90
2018-10-21T20:50:29.469Z,99.90
2018-10-21T20:52:57.998Z,99.90
2018-10-21T20:55:26.545Z,99.90
2018-10-21T20:57:55.127Z,99.90
2018-10-21T21:00:23.611Z,99.90
2018-10-21T21:02:52.154Z,99.90
2018-10-21T21:05:20.708Z,99.90
2018-10-21T21:07:49.229Z,99.90
2018-10-21T21:10:17.873Z,99.90
2018-10-21T21:12:46.340Z,99.90
2018-10-21T21:15:14.848Z,99.90
2018-10-21T21:17:43.385Z,99.90
2018-10-21T21:20:11.950Z,99.90
2018-10-21T21:22:40.463Z,99.90
2018-10-21T21:25:08.968Z,99.90
2018-10-21T21:27:37.480Z,99.90
2018-10-21T21:30:06.641Z,99.90
2018-10-21T21:32:35.115Z,99.90
2018-10-21T21:35:05.654Z,99.90
2018-10-21T21:37:34.205Z,99.90
2018-10-21T21:40:02.759Z,99.90
2018-10-21T21:42:31.295Z,99.90
2018-10-21T21:44:59.799Z,99.90
2018-10-21T21:47:28.336Z,99.90
2018-10-21T21:49:56.823Z,99.90
2018-10-21T21:52:25.339Z,99.90
2018-10-21T21:54:53.835Z,99.90
2018-10-21T21:57:22.378Z,99.90
2018-10-21T21:59:50.874Z,99.90
2018-10-21T22:02:19.417Z,99.90
2018-10-21T22:04:47.918Z,99.90
2018-10-21T22:07:16.449Z,99.90
2018-10-21T22:09:44.948Z,99.90
2018-10-21T22:12:13.632Z,99.90
2018-10-21T22:14:42.148Z,99.90
2018-10-21T22:17:10.711Z,99.90
2018-10-21T22:19:39.221Z,99.90
2018-10-21T22:22:07.797Z,99.90
2018-10-21T22:24:36.292Z,99.90
2018-10-21T22:27:04.835Z,99.90
2018-10-21T22:29:33.342Z,99.90
2018-10-21T22:32:01.893Z,99.90
2018-10-21T22:34:30.381Z,99.90
2018-10-21T22:36:58.891Z,99.90
2018-10-21T22:39:27.447Z,99.90
2018-10-21T22:41:55.963Z,99.90
2018-10-21T22:44:24.537Z,99.90
2018-10-21T22:46:53.090Z,99.90
2018-10-21T22:49:21.639Z,99.90
2018-10-21T22:51:50.159Z,99.90
2018-10-21T22:54:18.762Z,99.90
2018-10-21T22:56:47.197Z,99.90
2018-10-21T22:59:15.730Z,99.90
2018-10-21T23:01:44.261Z,99.90
2018-10-21T23:04:12.866Z,99.90
2018-10-21T23:06:41.319Z,99.90
2018-10-21T23:09:11.278Z,99.90
2018-10-21T23:11:40.091Z,99.90
2018-10-21T23:14:08.556Z,99.90
2018-10-21T23:16:37.065Z,99.90
2018-10-21T23:19:16.547Z,99.90
2018-10-21T23:21:45.069Z,99.90
2018-10-21T23:24:13.670Z,99.90
2018-10-21T23:26:42.192Z,99.90
2018-10-21T23:29:10.743Z,99.90
2018-10-21T23:31:39.276Z,99.90
2018-10-21T23:34:07.812Z,99.90
2018-10-21T23:36:36.336Z,99.90
2018-10-21T23:39:05.649Z,99.90
2018-10-21T23:41:34.161Z,99.90
2018-10-21T23:44:02.760Z,99.90
2018-10-21T23:46:31.276Z,99.90
2018-10-21T23:49:00.184Z,99.90
2018-10-21T23:51:28.681Z,99.90
2018-10-21T23:53:57.198Z,99.90
2018-10-21T23:56:25.732Z,99.90
2018-10-21T23:58:54.272Z,99.90
